createdAt,value
2023-02-11T00:02:56.191Z,100294.44
2023-02-11T00:06:01.732Z,100292.75
2023-02-11T00:09:07.711Z,100287.69
2023-02-11T00:12:13.944Z,100281.81
2023-02-11T00:15:19.244Z,100260.81
2023-02-11T00:18:24.260Z,100261.66
2023-02-11T00:21:29.412Z,100269.19
2023-02-11T00:24:34.574Z,100268.34
2023-02-11T00:27:41.083Z,100263.38
2023-02-11T00:30:46.344Z,100261.66
2023-02-11T00:33:51.641Z,100254.09
2023-02-11T00:36:57.122Z,100267.53
2023-02-11T00:40:04.390Z,100272.56
2023-02-11T00:43:14.415Z,100253.22
2023-02-11T00:46:21.145Z,100235.59
2023-02-11T00:49:26.519Z,100243.16
2023-02-11T00:52:31.415Z,100250.72
2023-02-11T00:55:36.750Z,100259.94
2023-02-11T00:58:43.428Z,100245.66
2023-02-11T01:01:48.623Z,100252.38
2023-02-11T01:04:53.871Z,100249.88
2023-02-11T01:07:59.037Z,100237.28
2023-02-11T01:11:05.237Z,100244.00
2023-02-11T01:14:12.503Z,100234.75
2023-02-11T01:17:17.802Z,100241.47
2023-02-11T01:20:25.255Z,100247.34
2023-02-11T01:23:30.378Z,100249.03
2023-02-11T01:26:36.034Z,100246.50
2023-02-11T01:29:42.549Z,100234.69
2023-02-11T01:32:47.742Z,100231.38
2023-02-11T01:35:53.189Z,100225.47
2023-02-11T01:38:58.513Z,100215.38
2023-02-11T01:42:03.560Z,100210.38
2023-02-11T01:45:53.783Z,100220.41
2023-02-11T01:49:03.172Z,100223.75
2023-02-11T01:52:12.094Z,100238.88
2023-02-11T01:55:34.953Z,100235.53
2023-02-11T01:58:42.502Z,100239.81
2023-02-11T02:01:52.677Z,100232.19
2023-02-11T02:05:05.163Z,100229.66
2023-02-11T02:08:15.963Z,100222.09
2023-02-11T02:11:21.252Z,100218.72
2023-02-11T02:14:27.572Z,100218.66
2023-02-11T02:17:39.342Z,100225.41
2023-02-11T02:21:19.543Z,100206.94
2023-02-11T02:24:39.365Z,100206.06
2023-02-11T02:27:50.328Z,100227.94
2023-02-11T02:31:27.562Z,100248.06
2023-02-11T02:34:38.229Z,100240.59
2023-02-11T02:37:49.834Z,100240.59
2023-02-11T02:41:02.669Z,100247.28
2023-02-11T02:44:09.859Z,100248.91
2023-02-11T02:47:15.134Z,100253.94
2023-02-11T02:50:30.199Z,100253.94
2023-02-11T02:53:46.493Z,100248.00
2023-02-11T02:56:56.045Z,100256.44
2023-02-11T03:00:19.749Z,100248.88
2023-02-11T03:03:31.592Z,100265.75
2023-02-11T03:06:48.154Z,100264.88
2023-02-11T03:09:56.512Z,100269.03
2023-02-11T03:13:02.238Z,100269.00
2023-02-11T03:16:11.676Z,100276.47
2023-02-11T03:19:20.503Z,100282.38
2023-02-11T03:22:29.395Z,100287.41
2023-02-11T03:25:38.470Z,100289.03
2023-02-11T03:28:47.146Z,100289.78
2023-02-11T03:31:57.731Z,100301.50
2023-02-11T03:35:05.775Z,100291.44
2023-02-11T03:38:17.613Z,100309.91
2023-02-11T03:41:25.642Z,100311.66
2023-02-11T03:44:36.173Z,100315.03
2023-02-11T03:47:45.382Z,100330.19
2023-02-11T03:50:51.042Z,100330.22
2023-02-11T03:53:58.594Z,100337.84
2023-02-11T03:57:04.699Z,100340.38
2023-02-11T04:00:11.825Z,100358.09
2023-02-11T04:03:17.647Z,100362.34
2023-02-11T04:06:22.781Z,100373.28
2023-02-11T04:09:29.190Z,100385.06
2023-02-11T04:12:34.620Z,100392.63
2023-02-11T04:15:39.541Z,100388.41
2023-02-11T04:18:44.585Z,100408.63
2023-02-11T04:21:49.402Z,100411.97
2023-02-11T04:24:55.904Z,100406.09
2023-02-11T04:28:01.303Z,100411.19
2023-02-11T04:31:06.867Z,100414.53
2023-02-11T04:34:13.222Z,100427.13
2023-02-11T04:37:18.282Z,100420.41
2023-02-11T04:40:24.875Z,100436.38
2023-02-11T04:43:30.321Z,100438.91
2023-02-11T04:46:35.062Z,100452.34
2023-02-11T04:49:40.725Z,100446.47
2023-02-11T04:52:45.958Z,100460.75
2023-02-11T04:55:53.053Z,100473.34
2023-02-11T04:58:57.963Z,100480.91
2023-02-11T05:02:04.561Z,100484.25
2023-02-11T05:05:09.639Z,100492.66
2023-02-11T05:08:15.206Z,100496.00
2023-02-11T05:11:23.892Z,100499.38
2023-02-11T05:14:29.425Z,100504.41
2023-02-11T05:17:34.621Z,100517.00
2023-02-11T05:20:40.228Z,100545.53
2023-02-11T05:23:45.425Z,100543.00
2023-02-11T05:26:51.939Z,100548.00
2023-02-11T05:29:57.407Z,100569.78
2023-02-11T05:33:02.281Z,100582.34
2023-02-11T05:36:09.550Z,100594.09
2023-02-11T05:39:14.794Z,100598.28
2023-02-11T05:42:21.394Z,100616.75
2023-02-11T05:45:26.839Z,100606.63
2023-02-11T05:48:31.681Z,100619.22
2023-02-11T05:51:36.835Z,100620.00
2023-02-11T05:54:42.042Z,100641.81
2023-02-11T05:57:48.595Z,100654.41
2023-02-11T06:00:53.672Z,100674.53
2023-02-11T06:03:59.118Z,100675.28
2023-02-11T06:07:04.576Z,100692.81
2023-02-11T06:10:11.506Z,100688.66
2023-02-11T06:13:18.803Z,100704.59
2023-02-11T06:16:24.077Z,100703.69
2023-02-11T06:19:29.374Z,100703.69
2023-02-11T06:22:35.181Z,100728.88
2023-02-11T06:25:40.352Z,100755.56
2023-02-11T06:28:46.936Z,100753.75
2023-02-11T06:31:52.326Z,100751.16
2023-02-11T06:34:57.772Z,100768.75
2023-02-11T06:38:02.558Z,100762.81
2023-02-11T06:41:07.714Z,100778.72
2023-02-11T06:44:15.254Z,100785.38
2023-02-11T06:47:20.744Z,100787.03
2023-02-11T06:50:25.562Z,100802.94
2023-02-11T06:53:31.050Z,100803.84
2023-02-11T06:56:36.975Z,100829.03
2023-02-11T06:59:43.620Z,100823.94
2023-02-11T07:02:48.768Z,100834.00
2023-02-11T07:05:53.809Z,100851.63
2023-02-11T07:08:58.975Z,100874.19
2023-02-11T07:12:03.803Z,100886.69
2023-02-11T07:15:10.994Z,100910.03
2023-02-11T07:18:16.418Z,100910.97
2023-02-11T07:21:24.332Z,100925.31
2023-02-11T07:24:29.478Z,100945.56
2023-02-11T07:27:34.732Z,100966.50
2023-02-11T07:30:41.289Z,100967.38
2023-02-11T07:33:46.933Z,100970.78
2023-02-11T07:36:52.268Z,100980.84
2023-02-11T07:39:57.618Z,100987.63
2023-02-11T07:43:03.175Z,101001.16
2023-02-11T07:46:19.708Z,101000.34
2023-02-11T07:49:26.061Z,101002.75
2023-02-11T07:52:31.950Z,101011.06
2023-02-11T07:55:37.089Z,101036.22
2023-02-11T07:58:43.223Z,101058.84
2023-02-11T08:01:51.473Z,101067.91
2023-02-11T08:04:56.687Z,101091.59
2023-02-11T08:08:02.040Z,101100.94
2023-02-11T08:11:11.252Z,101100.00
2023-02-11T08:14:20.557Z,101115.75
2023-02-11T08:17:26.815Z,101116.03
2023-02-11T08:20:32.501Z,101140.31
2023-02-11T08:23:38.367Z,101135.28
2023-02-11T08:26:44.613Z,101150.50
2023-02-11T08:29:49.676Z,101165.72
2023-02-11T08:32:56.545Z,101176.34
2023-02-11T08:36:01.961Z,101187.34
2023-02-11T08:39:18.661Z,101200.13
2023-02-11T08:42:24.995Z,101213.28
2023-02-11T08:45:30.336Z,101230.31
2023-02-11T08:48:37.002Z,101246.38
2023-02-11T08:51:43.415Z,101268.91
2023-02-11T08:54:48.463Z,101275.47
2023-02-11T08:57:53.640Z,101281.63
2023-02-11T09:00:58.580Z,101302.44
2023-02-11T09:04:05.428Z,101324.13
2023-02-11T09:07:13.809Z,101329.09
2023-02-11T09:10:20.995Z,101348.69
2023-02-11T09:13:25.961Z,101361.59
2023-02-11T09:16:34.452Z,101366.97
2023-02-11T09:19:40.965Z,101387.25
2023-02-11T09:22:46.454Z,101400.00
2023-02-11T09:25:51.904Z,101414.81
2023-02-11T09:28:58.724Z,101442.16
2023-02-11T09:32:03.925Z,101435.88
2023-02-11T09:35:10.930Z,101442.69
2023-02-11T09:38:18.449Z,101464.38
2023-02-11T09:41:38.852Z,101475.19
2023-02-11T09:44:46.679Z,101500.22
2023-02-11T09:47:55.760Z,101525.81
2023-02-11T09:51:05.252Z,101543.97
2023-02-11T09:54:17.003Z,101537.16
2023-02-11T09:57:28.530Z,101541.94
2023-02-11T10:00:41.093Z,101549.53
2023-02-11T10:04:04.241Z,101556.16
2023-02-11T10:07:17.403Z,101560.81
2023-02-11T10:10:38.043Z,101582.13
2023-02-11T10:13:52.684Z,101579.81
2023-02-11T10:17:05.782Z,101585.47
2023-02-11T10:20:25.701Z,101590.53
2023-02-11T10:23:36.592Z,101605.44
2023-02-11T10:26:42.688Z,101618.91
2023-02-11T10:29:52.513Z,101622.13
2023-02-11T10:33:01.615Z,101637.97
2023-02-11T10:36:08.087Z,101644.56
2023-02-11T10:39:17.613Z,101640.63
2023-02-11T10:42:22.499Z,101645.66
2023-02-11T10:45:33.579Z,101654.28
2023-02-11T10:48:41.461Z,101671.41
2023-02-11T10:51:47.492Z,101683.69
2023-02-11T10:55:02.603Z,101672.25
2023-02-11T10:58:08.087Z,101681.94
2023-02-11T11:01:24.301Z,101701.16
2023-02-11T11:04:45.062Z,101711.81
2023-02-11T11:07:57.718Z,101713.38
2023-02-11T11:11:08.374Z,101716.41
2023-02-11T11:14:26.093Z,101733.28
2023-02-11T11:17:31.999Z,101738.28
2023-02-11T11:20:38.051Z,101752.25
2023-02-11T11:23:53.078Z,101770.00
2023-02-11T11:27:01.885Z,101784.69
2023-02-11T11:30:13.030Z,101783.94
2023-02-11T11:33:23.270Z,101795.97
2023-02-11T11:36:35.824Z,101821.09
2023-02-11T11:39:41.574Z,101817.41
2023-02-11T11:42:48.695Z,101826.31
2023-02-11T11:45:58.355Z,101834.50
2023-02-11T11:49:16.159Z,101847.91
2023-02-11T11:52:34.635Z,101858.69
2023-02-11T11:55:44.433Z,101871.34
2023-02-11T11:58:51.583Z,101873.06
2023-02-11T12:02:13.280Z,101893.28
2023-02-11T12:05:26.079Z,101903.56
2023-02-11T12:08:40.692Z,101897.63
2023-02-11T12:12:13.654Z,101923.22
2023-02-11T12:15:29.793Z,101933.78
2023-02-11T12:19:01.243Z,101941.94
2023-02-11T12:22:12.682Z,101955.00
2023-02-11T12:25:29.478Z,101955.22
2023-02-11T12:28:41.288Z,101968.56
2023-02-11T12:31:58.867Z,101965.56
2023-02-11T12:35:32.800Z,101968.44
2023-02-11T12:38:52.171Z,101979.91
2023-02-11T12:42:41.765Z,101991.88
2023-02-11T12:46:16.001Z,102017.06
2023-02-11T12:50:06.300Z,102006.44
2023-02-11T12:53:28.243Z,102012.13
2023-02-11T12:56:38.391Z,102022.06
2023-02-11T12:59:50.696Z,102030.00
2023-02-11T13:03:01.185Z,102038.28
2023-02-11T13:06:09.687Z,102055.50
2023-02-11T13:09:21.139Z,102055.34
2023-02-11T13:12:58.704Z,102071.41
2023-02-11T13:16:07.910Z,102087.19
2023-02-11T13:19:21.525Z,102091.97
2023-02-11T13:22:32.498Z,102090.25
2023-02-11T13:25:44.709Z,102106.16
2023-02-11T13:28:55.106Z,102102.03
2023-02-11T13:32:08.735Z,102104.53
2023-02-11T13:35:30.842Z,102110.47
2023-02-11T13:38:36.166Z,102129.16
2023-02-11T13:41:45.572Z,102127.50
2023-02-11T13:44:50.466Z,102144.84
2023-02-11T13:47:58.423Z,102146.38
2023-02-11T13:51:06.511Z,102148.16
2023-02-11T13:54:32.720Z,102161.41
2023-02-11T13:57:40.961Z,102166.38
2023-02-11T14:00:48.960Z,102174.84
2023-02-11T14:04:37.721Z,102188.75
2023-02-11T14:08:30.569Z,102198.34
2023-02-11T14:11:50.033Z,102203.09
2023-02-11T14:15:30.446Z,102206.56
2023-02-11T14:18:40.191Z,102221.31
2023-02-11T14:21:46.618Z,102228.94
2023-02-11T14:24:54.876Z,102226.22
2023-02-11T14:28:05.532Z,102222.13
2023-02-11T14:31:15.744Z,102235.31
2023-02-11T14:34:34.384Z,102254.69
2023-02-11T14:37:50.304Z,102263.16
2023-02-11T14:41:02.577Z,102272.22
2023-02-11T14:44:13.780Z,102300.03
2023-02-11T14:47:22.719Z,102301.59
2023-02-11T14:50:29.904Z,102315.66
2023-02-11T14:53:35.709Z,102324.91
2023-02-11T14:56:40.851Z,102325.59
2023-02-11T15:00:02.502Z,102325.66
2023-02-11T15:03:24.349Z,102325.47
2023-02-11T15:06:32.828Z,102356.44
2023-02-11T15:09:42.932Z,102350.41
2023-02-11T15:12:51.572Z,102363.53
2023-02-11T15:15:59.773Z,102361.19
2023-02-11T15:19:07.818Z,102363.66
2023-02-11T15:22:20.419Z,102367.75
2023-02-11T15:25:26.043Z,102387.69
2023-02-11T15:28:33.330Z,102395.34
2023-02-11T15:31:38.919Z,102404.44
2023-02-11T15:34:46.032Z,102402.75
2023-02-11T15:37:51.278Z,102419.63
2023-02-11T15:41:00.848Z,102419.50
2023-02-11T15:44:06.310Z,102424.72
2023-02-11T15:47:15.236Z,102436.03
2023-02-11T15:50:26.673Z,102434.25
2023-02-11T15:53:34.838Z,102442.38
2023-02-11T15:56:43.491Z,102446.34
2023-02-11T15:59:50.217Z,102452.16
2023-02-11T16:02:55.820Z,102473.03
2023-02-11T16:06:21.598Z,102482.72
2023-02-11T16:09:33.780Z,102487.31
2023-02-11T16:12:39.197Z,102511.41
2023-02-11T16:15:50.091Z,102523.09
2023-02-11T16:19:06.256Z,102523.09
2023-02-11T16:22:18.676Z,102524.75
2023-02-11T16:25:24.472Z,102528.66
2023-02-11T16:28:30.024Z,102535.22
2023-02-11T16:31:38.364Z,102546.00
2023-02-11T16:34:44.079Z,102561.94
2023-02-11T16:37:51.083Z,102568.41
2023-02-11T16:40:58.700Z,102568.19
2023-02-11T16:44:03.972Z,102587.56
2023-02-11T16:47:14.763Z,102584.25
2023-02-11T16:50:24.205Z,102595.03
2023-02-11T16:53:30.879Z,102593.38
2023-02-11T16:56:36.046Z,102597.22
2023-02-11T16:59:42.053Z,102586.97
2023-02-11T17:02:50.093Z,102605.28
2023-02-11T17:05:56.064Z,102619.56
2023-02-11T17:09:02.503Z,102633.69
2023-02-11T17:12:08.186Z,102642.88
2023-02-11T17:15:13.560Z,102646.25
2023-02-11T17:18:18.853Z,102639.34
2023-02-11T17:21:27.613Z,102631.81
2023-02-11T17:24:35.738Z,102635.94
2023-02-11T17:27:45.006Z,102653.59
2023-02-11T17:30:51.031Z,102662.50
2023-02-11T17:33:55.903Z,102674.25
2023-02-11T17:37:03.212Z,102685.94
2023-02-11T17:40:13.724Z,102699.72
2023-02-11T17:43:19.133Z,102716.16
2023-02-11T17:46:23.984Z,102722.19
2023-02-11T17:49:29.145Z,102729.56
2023-02-11T17:52:34.310Z,102724.69
2023-02-11T17:55:56.674Z,102738.13
2023-02-11T17:59:02.520Z,102736.50
2023-02-11T18:02:08.174Z,102718.09
2023-02-11T18:05:13.549Z,102722.31
2023-02-11T18:08:18.788Z,102726.75
2023-02-11T18:11:26.076Z,102717.81
2023-02-11T18:14:31.247Z,102743.19
2023-02-11T18:17:36.501Z,102729.13
2023-02-11T18:20:42.910Z,102737.59
2023-02-11T18:23:48.059Z,102736.00
2023-02-11T18:26:57.907Z,102743.47
2023-02-11T18:30:03.152Z,102755.31
2023-02-11T18:33:12.078Z,102757.50
2023-02-11T18:36:17.512Z,102772.22
2023-02-11T18:39:24.380Z,102769.28
2023-02-11T18:42:34.415Z,102778.59
2023-02-11T18:45:43.437Z,102769.19
2023-02-11T18:48:50.130Z,102772.56
2023-02-11T18:51:55.278Z,102773.34
2023-02-11T18:55:00.102Z,102779.91
2023-02-11T18:58:07.090Z,102768.22
2023-02-11T19:01:14.545Z,102779.84
2023-02-11T19:04:20.242Z,102790.56
2023-02-11T19:07:25.619Z,102778.25
2023-02-11T19:10:31.070Z,102782.19
2023-02-11T19:13:37.591Z,102797.16
2023-02-11T19:16:45.097Z,102797.09
2023-02-11T19:19:50.506Z,102802.94
2023-02-11T19:22:55.694Z,102806.84
2023-02-11T19:26:01.448Z,102799.38
2023-02-11T19:29:08.387Z,102802.75
2023-02-11T19:32:13.546Z,102811.88
2023-02-11T19:35:19.179Z,102811.13
2023-02-11T19:38:24.292Z,102812.00
2023-02-11T19:41:29.557Z,102801.09
2023-02-11T19:44:36.337Z,102800.16
2023-02-11T19:47:41.649Z,102812.84
2023-02-11T19:50:47.037Z,102821.25
2023-02-11T19:53:52.300Z,102816.22
2023-02-11T19:56:58.020Z,102817.50
2023-02-11T20:00:04.972Z,102817.44
2023-02-11T20:03:31.415Z,102827.94
2023-02-11T20:06:37.063Z,102821.75
2023-02-11T20:09:42.708Z,102829.28
2023-02-11T20:12:48.189Z,102844.53
2023-02-11T20:15:56.148Z,102857.94
2023-02-11T20:19:01.665Z,102858.59
2023-02-11T20:22:07.251Z,102868.63
2023-02-11T20:25:13.290Z,102866.31
2023-02-11T20:28:21.394Z,102863.03
2023-02-11T20:31:29.903Z,102867.88
2023-02-11T20:34:35.362Z,102864.47
2023-02-11T20:37:43.774Z,102879.38
2023-02-11T20:40:49.547Z,102886.19
2023-02-11T20:43:56.342Z,102888.53
2023-02-11T20:47:02.875Z,102903.88
2023-02-11T20:50:09.437Z,102912.75
2023-02-11T20:53:15.792Z,102916.28
2023-02-11T20:56:23.831Z,102923.50
2023-02-11T20:59:29.073Z,102929.53
2023-02-11T21:02:35.788Z,102935.00
2023-02-11T21:05:40.535Z,102934.06
2023-02-11T21:08:45.835Z,102926.47
2023-02-11T21:11:52.124Z,102918.41
2023-02-11T21:14:58.092Z,102920.59
2023-02-11T21:18:04.923Z,102926.47
2023-02-11T21:21:10.021Z,102926.88
2023-02-11T21:24:15.230Z,102929.13
2023-02-11T21:27:20.410Z,102927.91
2023-02-11T21:30:25.426Z,102931.56
2023-02-11T21:33:33.637Z,102940.66
2023-02-11T21:36:38.775Z,102935.78
2023-02-11T21:39:44.383Z,102936.41
2023-02-11T21:42:49.449Z,102937.59
2023-02-11T21:45:54.969Z,102948.91
2023-02-11T21:49:01.704Z,102941.75
2023-02-11T21:52:07.215Z,102953.19
2023-02-11T21:55:15.290Z,102958.69
2023-02-11T21:58:20.522Z,102950.03
2023-02-11T22:01:27.008Z,102950.38
2023-02-11T22:04:35.898Z,102957.97
2023-02-11T22:07:41.101Z,102961.81
2023-02-11T22:10:46.450Z,102972.22
2023-02-11T22:13:56.412Z,102961.16
2023-02-11T22:17:01.769Z,102966.81
2023-02-11T22:20:10.217Z,102960.75
2023-02-11T22:23:15.561Z,102959.19
2023-02-11T22:26:23.588Z,102968.81
2023-02-11T22:29:28.886Z,102969.44
2023-02-11T22:32:33.978Z,102961.59
2023-02-11T22:35:40.496Z,102954.00
2023-02-11T22:38:45.700Z,102957.59
2023-02-11T22:41:51.241Z,102960.88
2023-02-11T22:44:56.069Z,102966.22
2023-02-11T22:48:01.134Z,102973.78
2023-02-11T22:51:09.200Z,102983.94
2023-02-11T22:54:16.534Z,102993.97
2023-02-11T22:57:21.685Z,102987.50
2023-02-11T23:00:28.669Z,102998.78
2023-02-11T23:03:34.514Z,102999.00
2023-02-11T23:06:42.041Z,102996.03
2023-02-11T23:09:47.187Z,103014.44
2023-02-11T23:12:52.370Z,103011.06
2023-02-11T23:15:57.615Z,103016.00
2023-02-11T23:19:04.615Z,103011.28
2023-02-11T23:22:11.210Z,103004.72
2023-02-11T23:25:16.474Z,103006.03
2023-02-11T23:28:21.790Z,103000.94
2023-02-11T23:31:28.895Z,103002.31
2023-02-11T23:34:34.060Z,103019.56
2023-02-11T23:37:41.460Z,103010.59
2023-02-11T23:40:46.684Z,103009.81
2023-02-11T23:43:52.578Z,103020.78
2023-02-11T23:46:57.628Z,103012.50
2023-02-11T23:50:02.779Z,103013.47
2023-02-11T23:53:09.386Z,103007.13
2023-02-11T23:56:18.436Z,102995.31
2023-02-11T23:59:23.535Z,102994.72
